Time,TemperatureF,DewpointF,PressureIn,WindDirection,WindDirectionDegrees,WindSpeedMPH,WindSpeedGustMPH,Humidity,HourlyPrecipIn,Conditions,Clouds,dailyrainin,SoftwareType,DateUTC
2014-02-03 00:00:00,14.4,9.9,30.01,South,171,3.0,6.0,87,0.00,,,0.00,jdr_py version_0.1,2014-02-03 07:00:00,
2014-02-03 00:06:00,14.1,9.6,30.01,South,173,2.0,4.0,87,0.00,,,0.00,jdr_py version_0.1,2014-02-03 07:06:00,
2014-02-03 00:12:00,14.0,9.5,29.99,South,174,2.0,0.0,87,0.00,,,0.00,jdr_py version_0.1,2014-02-03 07:12:00,
2014-02-03 00:18:00,13.8,9.3,29.99,South,170,1.0,2.0,87,0.00,,,0.00,jdr_py version_0.1,2014-02-03 07:18:00,
2014-02-03 00:24:00,13.6,8.7,29.99,South,170,1.0,0.0,86,0.00,,,0.00,jdr_py version_0.1,2014-02-03 07:24:00,
2014-02-03 00:30:00,13.3,8.4,30.00,South,170,1.0,0.0,86,0.00,,,0.00,jdr_py version_0.1,2014-02-03 07:30:00,
2014-02-03 00:36:00,12.9,8.0,30.00,South,170,1.0,0.0,86,0.00,,,0.00,jdr_py version_0.1,2014-02-03 07:36:00,
2014-02-03 00:42:00,12.8,7.9,30.01,South,170,0.0,0.0,86,0.00,,,0.00,jdr_py version_0.1,2014-02-03 07:42:00,
2014-02-03 00:48:00,12.8,7.9,30.01,South,170,1.0,0.0,86,0.00,,,0.00,jdr_py version_0.1,2014-02-03 07:48:00,
2014-02-03 00:54:00,13.1,8.6,30.01,South,170,1.0,0.0,87,0.00,,,0.00,jdr_py version_0.1,2014-02-03 07:54:00,
2014-02-03 01:00:00,12.6,7.8,30.01,South,170,1.0,0.0,86,0.00,,,0.00,jdr_py version_0.1,2014-02-03 08:00:00,
2014-02-03 01:06:00,13.8,9.3,30.01,South,170,0.0,0.0,87,0.00,,,0.00,jdr_py version_0.1,2014-02-03 08:06:00,
2014-02-03 01:12:00,14.6,10.4,29.98,South,170,0.0,0.0,88,0.00,,,0.00,jdr_py version_0.1,2014-02-03 08:12:00,
2014-02-03 01:18:00,15.4,11.2,29.98,South,170,0.0,0.0,88,0.00,,,0.00,jdr_py version_0.1,2014-02-03 08:18:00,
2014-02-03 01:24:00,16.2,11.3,29.98,WSW,252,1.0,4.0,86,0.00,,,0.00,jdr_py version_0.1,2014-02-03 08:24:00,
2014-02-03 01:30:00,16.9,9.2,29.98,WSW,254,3.0,3.0,79,0.00,,,0.00,jdr_py version_0.1,2014-02-03 08:30:00,
2014-02-03 01:36:00,16.9,7.1,29.98,WNW,288,4.0,4.0,74,0.00,,,0.00,jdr_py version_0.1,2014-02-03 08:36:00,
2014-02-03 01:42:00,14.6,5.8,29.97,WNW,288,3.0,3.0,76,0.00,,,0.00,jdr_py version_0.1,2014-02-03 08:42:00,
2014-02-03 01:48:00,14.6,5.3,29.97,West,259,3.0,6.0,75,0.00,,,0.00,jdr_py version_0.1,2014-02-03 08:48:00,
2014-02-03 01:54:00,17.5,5.0,29.97,West,268,7.0,9.0,68,0.00,,,0.00,jdr_py version_0.1,2014-02-03 08:54:00,
2014-02-03 02:00:00,18.6,3.7,29.95,WSW,257,6.0,6.0,63,0.00,,,0.00,jdr_py version_0.1,2014-02-03 09:00:00,
2014-02-03 02:06:00,18.8,2.8,29.95,WNW,289,5.0,5.0,61,0.00,,,0.00,jdr_py version_0.1,2014-02-03 09:06:00,
2014-02-03 02:12:00,18.9,2.4,29.94,WSW,257,4.0,5.0,60,0.00,,,0.00,jdr_py version_0.1,2014-02-03 09:12:00,
2014-02-03 02:18:00,18.4,2.0,29.94,WSW,257,3.0,5.0,60,0.00,,,0.00,jdr_py version_0.1,2014-02-03 09:18:00,
2014-02-03 02:24:00,18.6,1.1,29.94,WSW,257,5.0,5.0,58,0.00,,,0.00,jdr_py version_0.1,2014-02-03 09:24:00,
2014-02-03 02:30:00,19.5,0.3,29.95,WSW,257,6.0,6.0,55,0.00,,,0.00,jdr_py version_0.1,2014-02-03 09:30:00,
2014-02-03 02:36:00,19.7,1.0,29.95,West,263,5.0,8.0,56,0.00,,,0.00,jdr_py version_0.1,2014-02-03 09:36:00,
2014-02-03 02:42:00,20.0,0.8,29.94,WSW,254,4.0,8.0,55,0.00,,,0.00,jdr_py version_0.1,2014-02-03 09:42:00,
2014-02-03 02:48:00,20.3,0.5,29.94,WSW,253,3.0,0.0,54,0.00,,,0.00,jdr_py version_0.1,2014-02-03 09:48:00,
2014-02-03 02:54:00,19.9,0.7,29.94,SSE,156,1.0,0.0,55,0.00,,,0.00,jdr_py version_0.1,2014-02-03 09:54:00,
2014-02-03 03:00:00,20.2,0.4,29.94,SSE,156,0.0,0.0,54,0.00,,,0.00,jdr_py version_0.1,2014-02-03 10:00:00,
2014-02-03 03:06:00,19.7,1.6,29.94,SSE,156,0.0,0.0,57,0.00,,,0.00,jdr_py version_0.1,2014-02-03 10:06:00,
2014-02-03 03:12:00,19.4,0.8,29.95,SSE,156,0.0,0.0,56,0.00,,,0.00,jdr_py version_0.1,2014-02-03 10:12:00,
2014-02-03 03:18:00,19.5,-0.3,29.95,West,269,1.0,0.0,54,0.00,,,0.00,jdr_py version_0.1,2014-02-03 10:18:00,
2014-02-03 03:24:00,19.4,-0.4,29.95,NW,322,1.0,0.0,54,0.00,,,0.00,jdr_py version_0.1,2014-02-03 10:24:00,
2014-02-03 03:30:00,19.1,-0.1,29.94,NNW,331,0.0,0.0,55,0.00,,,0.00,jdr_py version_0.1,2014-02-03 10:30:00,
2014-02-03 03:36:00,18.9,-0.2,29.94,NNW,330,0.0,0.0,55,0.00,,,0.00,jdr_py version_0.1,2014-02-03 10:36:00,
2014-02-03 03:42:00,19.1,-0.1,29.94,WNW,282,2.0,5.0,55,0.00,,,0.00,jdr_py version_0.1,2014-02-03 10:42:00,
2014-02-03 03:48:00,19.9,-0.5,29.94,West,269,4.0,4.0,53,0.00,,,0.00,jdr_py version_0.1,2014-02-03 10:48:00,
2014-02-03 03:54:00,20.5,-0.5,29.94,WSW,251,4.0,4.0,52,0.00,,,0.00,jdr_py version_0.1,2014-02-03 10:54:00,
2014-02-03 04:00:00,21.1,-1.2,29.92,SW,225,5.0,11.0,50,0.00,,,0.00,jdr_py version_0.1,2014-02-03 11:00:00,
2014-02-03 04:06:00,21.4,-2.1,29.92,West,265,6.0,6.0,48,0.00,,,0.00,jdr_py version_0.1,2014-02-03 11:06:00,
2014-02-03 04:12:00,21.6,-1.3,29.92,West,272,6.0,0.0,49,0.00,,,0.00,jdr_py version_0.1,2014-02-03 11:12:00,
2014-02-03 04:18:00,21.6,-0.7,29.92,West,260,3.0,4.0,50,0.00,,,0.00,jdr_py version_0.1,2014-02-03 11:18:00,
2014-02-03 04:24:00,21.3,-1.0,29.92,WSW,253,3.0,0.0,50,0.00,,,0.00,jdr_py version_0.1,2014-02-03 11:24:00,
2014-02-03 04:30:00,21.0,-0.7,29.95,WSW,253,1.0,0.0,51,0.00,,,0.00,jdr_py version_0.1,2014-02-03 11:30:00,
2014-02-03 04:36:00,21.0,-1.3,29.95,WSW,252,1.0,2.0,50,0.00,,,0.00,jdr_py version_0.1,2014-02-03 11:36:00,
2014-02-03 04:42:00,20.8,-2.7,29.95,West,265,3.0,4.0,48,0.00,,,0.00,jdr_py version_0.1,2014-02-03 11:42:00,
2014-02-03 04:48:00,21.0,-2.5,29.95,West,274,4.0,12.0,48,0.00,,,0.00,jdr_py version_0.1,2014-02-03 11:48:00,
2014-02-03 04:54:00,21.0,-2.5,29.95,West,261,6.0,8.0,48,0.00,,,0.00,jdr_py version_0.1,2014-02-03 11:54:00,
2014-02-03 05:00:00,21.3,-3.5,29.94,WSW,250,9.0,15.0,46,0.00,,,0.00,jdr_py version_0.1,2014-02-03 12:00:00,
2014-02-03 05:06:00,21.8,-2.4,29.94,West,273,11.0,11.0,47,0.00,,,0.00,jdr_py version_0.1,2014-02-03 12:06:00,
2014-02-03 05:12:00,21.6,-2.6,29.96,WSW,250,8.0,12.0,47,0.00,,,0.00,jdr_py version_0.1,2014-02-03 12:12:00,
2014-02-03 05:18:00,21.9,-3.0,29.96,WSW,253,8.0,8.0,46,0.00,,,0.00,jdr_py version_0.1,2014-02-03 12:18:00,
2014-02-03 05:24:00,22.2,-2.1,29.96,West,263,9.0,9.0,47,0.00,,,0.00,jdr_py version_0.1,2014-02-03 12:24:00,
2014-02-03 05:30:00,22.4,-3.9,29.96,WSW,248,8.0,13.0,44,0.00,,,0.00,jdr_py version_0.1,2014-02-03 12:30:00,
2014-02-03 05:36:00,22.5,-2.5,29.96,WSW,247,9.0,9.0,46,0.00,,,0.00,jdr_py version_0.1,2014-02-03 12:36:00,
2014-02-03 05:42:00,22.5,-3.8,29.96,West,261,8.0,11.0,44,0.00,,,0.00,jdr_py version_0.1,2014-02-03 12:42:00,
2014-02-03 05:48:00,22.5,-3.8,29.96,West,259,8.0,12.0,44,0.00,,,0.00,jdr_py version_0.1,2014-02-03 12:48:00,
2014-02-03 05:54:00,22.7,-4.3,29.96,West,280,7.0,11.0,43,0.00,,,0.00,jdr_py version_0.1,2014-02-03 12:54:00,
2014-02-03 06:00:00,22.7,-5.0,29.97,WNW,288,7.0,7.0,42,0.00,,,0.00,jdr_py version_0.1,2014-02-03 13:00:00,
2014-02-03 06:06:00,21.3,-4.8,29.97,WNW,291,4.0,4.0,44,0.00,,,0.00,jdr_py version_0.1,2014-02-03 13:06:00,
2014-02-03 06:12:00,20.0,-5.3,30.01,WNW,291,1.0,0.0,45,0.00,,,0.00,jdr_py version_0.1,2014-02-03 13:12:00,
2014-02-03 06:18:00,18.4,-6.1,30.01,NE,40,1.0,0.0,46,0.00,,,0.00,jdr_py version_0.1,2014-02-03 13:18:00,
2014-02-03 06:24:00,18.1,-5.1,30.01,NE,46,2.0,0.0,48,0.00,,,0.00,jdr_py version_0.1,2014-02-03 13:24:00,
2014-02-03 06:30:00,17.0,-6.1,30.03,NE,43,1.0,0.0,48,0.00,,,0.00,jdr_py version_0.1,2014-02-03 13:30:00,
2014-02-03 06:36:00,16.5,-5.9,30.03,NNW,327,2.0,0.0,49,0.00,,,0.00,jdr_py version_0.1,2014-02-03 13:36:00,
2014-02-03 06:42:00,17.2,-4.1,30.04,NW,325,0.0,0.0,51,0.00,,,0.00,jdr_py version_0.1,2014-02-03 13:42:00,
2014-02-03 06:48:00,18.0,-4.0,30.04,NNW,340,0.0,0.0,50,0.00,,,0.00,jdr_py version_0.1,2014-02-03 13:48:00,
2014-02-03 06:54:00,17.7,-2.5,30.04,NNW,340,0.0,0.0,53,0.00,,,0.00,jdr_py version_0.1,2014-02-03 13:54:00,
2014-02-03 07:00:00,18.0,-2.2,30.05,NNW,340,0.0,0.0,53,0.00,,,0.00,jdr_py version_0.1,2014-02-03 14:00:00,
2014-02-03 07:06:00,18.1,-1.5,30.05,NNW,341,0.0,0.0,54,0.00,,,0.00,jdr_py version_0.1,2014-02-03 14:06:00,
2014-02-03 07:12:00,18.6,-3.4,30.03,NNW,341,0.0,0.0,50,0.00,,,0.00,jdr_py version_0.1,2014-02-03 14:12:00,
2014-02-03 07:18:00,18.9,-2.5,30.03,NNW,341,0.0,0.0,51,0.00,,,0.00,jdr_py version_0.1,2014-02-03 14:18:00,
2014-02-03 07:24:00,18.8,-4.5,30.03,NNW,341,0.0,0.0,48,0.00,,,0.00,jdr_py version_0.1,2014-02-03 14:24:00,
2014-02-03 07:30:00,19.1,-4.2,30.03,NNW,341,0.0,0.0,48,0.00,,,0.00,jdr_py version_0.1,2014-02-03 14:30:00,
2014-02-03 07:36:00,19.2,-2.3,30.03,NNW,341,0.0,0.0,51,0.00,,,0.00,jdr_py version_0.1,2014-02-03 14:36:00,
2014-02-03 07:42:00,19.4,-2.1,30.03,North,350,0.0,2.0,51,0.00,,,0.00,jdr_py version_0.1,2014-02-03 14:42:00,
2014-02-03 07:48:00,20.5,-2.9,30.03,North,350,0.0,0.0,48,0.00,,,0.00,jdr_py version_0.1,2014-02-03 14:48:00,
2014-02-03 07:54:00,20.0,-0.4,30.03,NNE,33,0.0,4.0,53,0.00,,,0.00,jdr_py version_0.1,2014-02-03 14:54:00,
2014-02-03 08:00:00,20.5,-3.6,30.02,NE,41,2.0,2.0,47,0.00,,,0.00,jdr_py version_0.1,2014-02-03 15:00:00,
2014-02-03 08:06:00,21.4,-3.4,30.02,NE,53,2.0,2.0,46,0.00,,,0.00,jdr_py version_0.1,2014-02-03 15:06:00,
2014-02-03 08:12:00,21.9,-4.3,30.02,NE,40,2.0,4.0,44,0.00,,,0.00,jdr_py version_0.1,2014-02-03 15:12:00,
2014-02-03 08:18:00,22.5,-3.1,30.02,WNW,286,2.0,0.0,45,0.00,,,0.00,jdr_py version_0.1,2014-02-03 15:18:00,
2014-02-03 08:24:00,23.2,-5.3,30.02,West,275,2.0,3.0,41,0.00,,,0.00,jdr_py version_0.1,2014-02-03 15:24:00,
2014-02-03 08:30:00,23.3,-5.9,30.00,WNW,284,2.0,2.0,40,0.00,,,0.00,jdr_py version_0.1,2014-02-03 15:30:00,
2014-02-03 08:36:00,23.6,-5.7,30.00,West,271,2.0,0.0,40,0.00,,,0.00,jdr_py version_0.1,2014-02-03 15:36:00,
2014-02-03 08:42:00,23.9,-5.4,30.00,NW,306,2.0,0.0,40,0.00,,,0.00,jdr_py version_0.1,2014-02-03 15:42:00,
2014-02-03 08:48:00,23.8,-4.8,30.00,WNW,302,2.0,2.0,41,0.00,,,0.00,jdr_py version_0.1,2014-02-03 15:48:00,
2014-02-03 08:54:00,23.3,-4.5,30.00,West,263,1.0,2.0,42,0.00,,,0.00,jdr_py version_0.1,2014-02-03 15:54:00,
2014-02-03 09:00:00,23.9,-4.7,30.00,West,263,1.0,3.0,41,0.00,,,0.00,jdr_py version_0.1,2014-02-03 16:00:00,
2014-02-03 09:06:00,24.2,-3.0,30.00,West,267,1.0,3.0,43,0.00,,,0.00,jdr_py version_0.1,2014-02-03 16:06:00,
2014-02-03 09:12:00,24.7,-2.6,29.98,West,269,2.0,4.0,43,0.00,,,0.00,jdr_py version_0.1,2014-02-03 16:12:00,
2014-02-03 09:30:00,25.1,-1.5,29.98,WNW,292,6.0,7.0,44,0.00,,,0.00,jdr_py version_0.1,2014-02-03 16:30:00,
2014-02-03 09:36:00,25.1,-2.9,29.98,WNW,299,7.0,7.0,42,0.00,,,0.00,jdr_py version_0.1,2014-02-03 16:36:00,
2014-02-03 09:42:00,25.4,-3.4,29.98,WNW,295,8.0,9.0,41,0.00,,,0.00,jdr_py version_0.1,2014-02-03 16:42:00,
2014-02-03 09:48:00,25.6,-2.5,29.98,NW,319,7.0,9.0,42,0.00,,,0.00,jdr_py version_0.1,2014-02-03 16:48:00,
2014-02-03 09:54:00,25.3,-2.0,29.98,NW,315,7.0,7.0,43,0.00,,,0.00,jdr_py version_0.1,2014-02-03 16:54:00,
2014-02-03 10:00:00,25.0,-0.9,29.98,NW,313,6.0,6.0,45,0.00,,,0.00,jdr_py version_0.1,2014-02-03 17:00:00,
2014-02-03 10:06:00,25.6,-1.1,29.98,WNW,296,5.0,5.0,44,0.00,,,0.00,jdr_py version_0.1,2014-02-03 17:06:00,
2014-02-03 10:12:00,26.7,-2.2,29.96,West,263,5.0,5.0,41,0.00,,,0.00,jdr_py version_0.1,2014-02-03 17:12:00,
2014-02-03 10:18:00,27.0,-1.3,29.96,WNW,286,4.0,5.0,42,0.00,,,0.00,jdr_py version_0.1,2014-02-03 17:18:00,
2014-02-03 10:24:00,27.5,-0.1,29.96,WNW,287,3.0,0.0,43,0.00,,,0.00,jdr_py version_0.1,2014-02-03 17:24:00,
2014-02-03 10:30:00,28.4,0.0,29.95,SSE,157,1.0,2.0,42,0.00,,,0.00,jdr_py version_0.1,2014-02-03 17:30:00,
2014-02-03 10:36:00,28.5,0.0,29.95,WSW,251,2.0,4.0,42,0.00,,,0.00,jdr_py version_0.1,2014-02-03 17:36:00,
2014-02-03 10:42:00,29.1,0.6,29.94,WSW,240,0.0,0.0,42,0.00,,,0.00,jdr_py version_0.1,2014-02-03 17:42:00,
2014-02-03 10:48:00,30.0,-0.9,29.94,WSW,240,0.0,0.0,39,0.00,,,0.00,jdr_py version_0.1,2014-02-03 17:48:00,
2014-02-03 10:54:00,29.8,-3.5,29.94,WSW,248,0.0,0.0,36,0.00,,,0.00,jdr_py version_0.1,2014-02-03 17:54:00,
2014-02-03 11:00:00,29.3,-2.3,29.94,WSW,249,1.0,0.0,38,0.00,,,0.00,jdr_py version_0.1,2014-02-03 18:00:00,
2014-02-03 11:06:00,30.0,-0.9,29.94,WSW,239,0.0,0.0,39,0.00,,,0.00,jdr_py version_0.1,2014-02-03 18:06:00,
2014-02-03 11:12:00,30.4,-3.8,29.92,South,181,2.0,4.0,35,0.00,,,0.00,jdr_py version_0.1,2014-02-03 18:12:00,
2014-02-03 11:18:00,30.6,-1.2,29.92,SSE,164,3.0,3.0,38,0.00,,,0.00,jdr_py version_0.1,2014-02-03 18:18:00,
2014-02-03 11:24:00,30.9,-5.2,29.92,SE,137,2.0,0.0,33,0.00,,,0.00,jdr_py version_0.1,2014-02-03 18:24:00,
2014-02-03 11:30:00,31.2,-3.2,29.90,SSE,164,1.0,4.0,35,0.00,,,0.00,jdr_py version_0.1,2014-02-03 18:30:00,
2014-02-03 11:36:00,31.2,-3.2,29.90,SSE,163,1.0,0.0,35,0.00,,,0.00,jdr_py version_0.1,2014-02-03 18:36:00,
2014-02-03 11:42:00,31.2,-0.7,29.88,SE,136,1.0,3.0,38,0.00,,,0.00,jdr_py version_0.1,2014-02-03 18:42:00,
2014-02-03 11:48:00,30.6,-2.0,29.88,South,173,3.0,4.0,37,0.00,,,0.00,jdr_py version_0.1,2014-02-03 18:48:00,
2014-02-03 11:54:00,30.6,-4.6,29.88,SSE,165,3.0,3.0,34,0.00,,,0.00,jdr_py version_0.1,2014-02-03 18:54:00,
2014-02-03 12:00:00,29.8,-5.2,29.90,South,171,4.0,6.0,34,0.00,,,0.00,jdr_py version_0.1,2014-02-03 19:00:00,
2014-02-03 12:06:00,30.0,-3.3,29.90,South,169,4.0,0.0,36,0.00,,,0.00,jdr_py version_0.1,2014-02-03 19:06:00,
2014-02-03 12:12:00,30.0,-3.3,29.91,SSE,150,3.0,7.0,36,0.00,,,0.00,jdr_py version_0.1,2014-02-03 19:12:00,
2014-02-03 12:18:00,29.8,-1.1,29.91,South,172,4.0,0.0,39,0.00,,,0.00,jdr_py version_0.1,2014-02-03 19:18:00,
2014-02-03 12:24:00,29.5,-2.1,29.91,South,181,3.0,6.0,38,0.00,,,0.00,jdr_py version_0.1,2014-02-03 19:24:00,
2014-02-03 12:30:00,29.7,0.3,29.90,SSE,156,4.0,4.0,41,0.00,,,0.00,jdr_py version_0.1,2014-02-03 19:30:00,
2014-02-03 12:36:00,29.4,0.1,29.90,SSE,153,4.0,5.0,41,0.00,,,0.00,jdr_py version_0.1,2014-02-03 19:36:00,
2014-02-03 12:42:00,29.8,0.4,29.90,South,176,3.0,0.0,41,0.00,,,0.00,jdr_py version_0.1,2014-02-03 19:42:00,
2014-02-03 12:48:00,29.8,0.4,29.90,SSE,165,3.0,6.0,41,0.00,,,0.00,jdr_py version_0.1,2014-02-03 19:48:00,
2014-02-03 12:54:00,29.5,0.2,29.90,SSE,167,5.0,6.0,41,0.00,,,0.00,jdr_py version_0.1,2014-02-03 19:54:00,
2014-02-03 13:00:00,29.3,0.0,29.90,SSE,159,4.0,0.0,41,0.00,,,0.00,jdr_py version_0.1,2014-02-03 20:00:00,
2014-02-03 13:06:00,29.5,0.9,29.90,SE,146,3.0,3.0,42,0.00,,,0.00,jdr_py version_0.1,2014-02-03 20:06:00,
2014-02-03 13:12:00,29.5,0.2,29.83,South,177,4.0,5.0,41,0.00,,,0.01,jdr_py version_0.1,2014-02-03 20:12:00,
2014-02-03 13:18:00,29.3,0.0,29.83,South,180,4.0,4.0,41,0.00,,,0.01,jdr_py version_0.1,2014-02-03 20:18:00,
2014-02-03 13:24:00,29.5,1.6,29.83,SE,141,3.0,0.0,43,0.00,,,0.01,jdr_py version_0.1,2014-02-03 20:24:00,
2014-02-03 13:30:00,29.8,1.2,29.82,South,173,3.0,7.0,42,0.00,,,0.01,jdr_py version_0.1,2014-02-03 20:30:00,
2014-02-03 13:36:00,29.7,1.1,29.82,South,170,4.0,5.0,42,0.00,,,0.01,jdr_py version_0.1,2014-02-03 20:36:00,
2014-02-03 13:42:00,29.8,1.2,29.82,South,169,3.0,0.0,42,0.00,,,0.01,jdr_py version_0.1,2014-02-03 20:42:00,
2014-02-03 13:48:00,29.8,2.6,29.82,SSE,158,3.0,0.0,44,0.00,,,0.01,jdr_py version_0.1,2014-02-03 20:48:00,
2014-02-03 13:54:00,29.7,1.1,29.82,SSE,157,4.0,0.0,42,0.00,,,0.01,jdr_py version_0.1,2014-02-03 20:54:00,
2014-02-03 14:00:00,29.4,3.0,29.82,South,169,4.0,0.0,45,0.00,,,0.01,jdr_py version_0.1,2014-02-03 21:00:00,
2014-02-03 14:06:00,29.8,-0.3,29.82,SSE,163,2.0,3.0,40,0.00,,,0.01,jdr_py version_0.1,2014-02-03 21:06:00,
2014-02-03 14:12:00,29.1,2.7,29.82,SSE,167,3.0,3.0,45,0.00,,,0.01,jdr_py version_0.1,2014-02-03 21:12:00,
2014-02-03 14:18:00,29.0,2.6,29.82,South,176,4.0,8.0,45,0.00,,,0.01,jdr_py version_0.1,2014-02-03 21:18:00,
2014-02-03 14:24:00,29.1,2.0,29.82,SE,132,3.0,3.0,44,0.00,,,0.01,jdr_py version_0.1,2014-02-03 21:24:00,
2014-02-03 14:30:00,29.3,2.9,29.82,SSE,148,3.0,4.0,45,0.00,,,0.01,jdr_py version_0.1,2014-02-03 21:30:00,
2014-02-03 14:36:00,28.5,1.5,29.82,SSE,150,4.0,6.0,44,0.00,,,0.01,jdr_py version_0.1,2014-02-03 21:36:00,
2014-02-03 14:42:00,27.6,1.4,29.82,SSE,166,5.0,0.0,45,0.00,,,0.01,jdr_py version_0.1,2014-02-03 21:42:00,
2014-02-03 14:48:00,28.1,1.8,29.82,SSE,163,4.0,4.0,45,0.00,,,0.01,jdr_py version_0.1,2014-02-03 21:48:00,
2014-02-03 14:54:00,27.5,0.6,29.82,SSE,159,4.0,0.0,44,0.00,,,0.01,jdr_py version_0.1,2014-02-03 21:54:00,
2014-02-03 15:00:00,27.6,0.7,29.83,SSE,158,2.0,4.0,44,0.00,,,0.01,jdr_py version_0.1,2014-02-03 22:00:00,
2014-02-03 15:06:00,27.5,0.6,29.83,SSE,157,1.0,5.0,44,0.00,,,0.01,jdr_py version_0.1,2014-02-03 22:06:00,
2014-02-03 15:12:00,27.0,0.9,29.83,SSE,165,2.0,2.0,45,0.00,,,0.01,jdr_py version_0.1,2014-02-03 22:12:00,
2014-02-03 15:18:00,26.7,0.6,29.83,South,173,2.0,3.0,45,0.00,,,0.01,jdr_py version_0.1,2014-02-03 22:18:00,
2014-02-03 15:30:00,26.4,-1.1,29.84,South,173,1.0,1.0,43,0.00,,,0.01,jdr_py version_0.1,2014-02-03 22:30:00,
2014-02-03 15:36:00,26.4,-0.4,29.84,South,173,1.0,0.0,44,0.00,,,0.01,jdr_py version_0.1,2014-02-03 22:36:00,
2014-02-03 15:42:00,26.3,-1.9,29.86,SSE,157,1.0,4.0,42,0.00,,,0.01,jdr_py version_0.1,2014-02-03 22:42:00,
2014-02-03 15:48:00,26.1,-1.3,29.86,SSE,153,1.0,5.0,43,0.00,,,0.01,jdr_py version_0.1,2014-02-03 22:48:00,
2014-02-03 15:54:00,25.8,-5.3,29.86,SSE,153,1.0,3.0,38,0.00,,,0.01,jdr_py version_0.1,2014-02-03 22:54:00,
2014-02-03 16:00:00,25.7,-4.6,29.87,SSE,153,0.0,0.0,39,0.00,,,0.01,jdr_py version_0.1,2014-02-03 23:00:00,
2014-02-03 16:06:00,25.6,-4.7,29.87,SSE,153,0.0,0.0,39,0.00,,,0.01,jdr_py version_0.1,2014-02-03 23:06:00,
2014-02-03 16:12:00,25.4,-5.7,29.87,SSE,153,1.0,0.0,38,0.00,,,0.01,jdr_py version_0.1,2014-02-03 23:12:00,
2014-02-03 16:18:00,25.3,-4.2,29.87,SSE,153,1.0,0.0,40,0.00,,,0.01,jdr_py version_0.1,2014-02-03 23:18:00,
2014-02-03 16:24:00,25.0,-6.0,29.87,SSE,153,0.0,0.0,38,0.00,,,0.01,jdr_py version_0.1,2014-02-03 23:24:00,
2014-02-03 16:30:00,24.7,-5.5,29.87,SSE,153,0.0,0.0,39,0.00,,,0.01,jdr_py version_0.1,2014-02-03 23:30:00,
2014-02-03 16:36:00,24.4,-5.7,29.87,SSE,153,0.0,0.0,39,0.00,,,0.01,jdr_py version_0.1,2014-02-03 23:36:00,
2014-02-03 16:42:00,23.8,-2.7,29.89,SE,146,0.0,0.0,44,0.00,,,0.01,jdr_py version_0.1,2014-02-03 23:42:00,
2014-02-03 16:48:00,23.2,-3.2,29.89,SE,142,0.0,2.0,44,0.00,,,0.01,jdr_py version_0.1,2014-02-03 23:48:00,
2014-02-03 16:54:00,22.7,-3.6,29.89,East,84,1.0,2.0,44,0.00,,,0.01,jdr_py version_0.1,2014-02-03 23:54:00,
2014-02-03 17:00:00,22.2,-3.4,29.90,ENE,73,2.0,0.0,45,0.00,,,0.01,jdr_py version_0.1,2014-02-04 00:00:00,
2014-02-03 17:06:00,21.8,-3.1,29.90,ENE,72,0.0,0.0,46,0.00,,,0.01,jdr_py version_0.1,2014-02-04 00:06:00,
2014-02-03 17:12:00,21.6,-3.9,29.90,ENE,71,1.0,0.0,45,0.00,,,0.01,jdr_py version_0.1,2014-02-04 00:12:00,
2014-02-03 17:18:00,21.1,-5.0,29.90,ENE,71,1.0,0.0,44,0.00,,,0.01,jdr_py version_0.1,2014-02-04 00:18:00,
2014-02-03 17:24:00,20.8,-5.3,29.90,ENE,71,0.0,0.0,44,0.00,,,0.01,jdr_py version_0.1,2014-02-04 00:24:00,
2014-02-03 17:30:00,20.3,-3.8,29.90,ENE,72,0.0,0.0,47,0.00,,,0.01,jdr_py version_0.1,2014-02-04 00:30:00,
2014-02-03 17:36:00,19.9,-2.2,29.90,ENE,71,1.0,0.0,50,0.00,,,0.01,jdr_py version_0.1,2014-02-04 00:36:00,
2014-02-03 17:42:00,19.5,-2.0,29.93,NE,54,1.0,2.0,51,0.00,,,0.01,jdr_py version_0.1,2014-02-04 00:42:00,
2014-02-03 17:48:00,19.4,-2.1,29.93,ENE,67,2.0,0.0,51,0.00,,,0.01,jdr_py version_0.1,2014-02-04 00:48:00,
2014-02-03 17:54:00,19.2,-2.9,29.93,ENE,63,3.0,5.0,50,0.00,,,0.01,jdr_py version_0.1,2014-02-04 00:54:00,
2014-02-03 18:00:00,19.1,-3.6,29.93,NE,51,4.0,6.0,49,0.00,,,0.01,jdr_py version_0.1,2014-02-04 01:00:00,
2014-02-03 18:06:00,18.9,-3.1,29.93,NE,51,4.0,5.0,50,0.00,,,0.01,jdr_py version_0.1,2014-02-04 01:06:00,
2014-02-03 18:12:00,18.6,-3.4,29.99,NE,54,3.0,5.0,50,0.00,,,0.01,jdr_py version_0.1,2014-02-04 01:12:00,
2014-02-03 18:18:00,18.4,-3.0,29.99,NE,50,4.0,5.0,51,0.00,,,0.01,jdr_py version_0.1,2014-02-04 01:18:00,
2014-02-03 18:24:00,17.0,-1.4,29.99,NE,37,5.0,5.0,56,0.00,,,0.01,jdr_py version_0.1,2014-02-04 01:24:00,
2014-02-03 18:30:00,16.4,-0.9,30.01,NNE,28,4.0,4.0,58,0.00,,,0.01,jdr_py version_0.1,2014-02-04 01:30:00,
2014-02-03 18:36:00,16.5,-1.4,30.01,NE,41,5.0,5.0,57,0.00,,,0.01,jdr_py version_0.1,2014-02-04 01:36:00,
2014-02-03 18:42:00,16.7,-1.2,30.01,NE,42,5.0,5.0,57,0.00,,,0.01,jdr_py version_0.1,2014-02-04 01:42:00,
2014-02-03 18:48:00,16.2,-1.1,30.01,NE,42,4.0,4.0,58,0.00,,,0.01,jdr_py version_0.1,2014-02-04 01:48:00,
2014-02-03 18:54:00,15.4,-0.8,30.01,NE,42,4.0,4.0,60,0.00,,,0.01,jdr_py version_0.1,2014-02-04 01:54:00,
2014-02-03 19:00:00,15.7,-0.5,30.04,NNE,29,6.0,8.0,60,0.00,,,0.01,jdr_py version_0.1,2014-02-04 02:00:00,
2014-02-03 19:06:00,15.1,-0.6,30.04,NNE,30,7.0,7.0,61,0.00,,,0.01,jdr_py version_0.1,2014-02-04 02:06:00,
2014-02-03 19:12:00,14.3,0.2,30.02,NNE,30,6.0,6.0,64,0.00,,,0.01,jdr_py version_0.1,2014-02-04 02:12:00,
2014-02-03 19:18:00,13.8,1.1,30.02,NNE,33,5.0,6.0,67,0.00,,,0.01,jdr_py version_0.1,2014-02-04 02:18:00,
2014-02-03 19:24:00,13.6,1.4,30.02,NE,34,6.0,6.0,68,0.00,,,0.01,jdr_py version_0.1,2014-02-04 02:24:00,
2014-02-03 19:30:00,13.5,2.2,30.03,NNE,33,5.0,5.0,70,0.00,,,0.01,jdr_py version_0.1,2014-02-04 02:30:00,
2014-02-03 19:36:00,13.3,2.4,30.03,NNE,32,4.0,4.0,71,0.00,,,0.01,jdr_py version_0.1,2014-02-04 02:36:00,
2014-02-03 19:42:00,13.3,3.3,30.05,NNE,32,4.0,4.0,73,0.00,,,0.01,jdr_py version_0.1,2014-02-04 02:42:00,
2014-02-03 19:48:00,13.1,3.5,30.05,NNE,32,4.0,4.0,74,0.00,,,0.01,jdr_py version_0.1,2014-02-04 02:48:00,
2014-02-03 19:54:00,13.5,4.3,30.05,NNE,32,5.0,6.0,75,0.00,,,0.01,jdr_py version_0.1,2014-02-04 02:54:00,
2014-02-03 20:00:00,13.8,5.0,30.03,NNE,32,6.0,6.0,76,0.00,,,0.01,jdr_py version_0.1,2014-02-04 03:00:00,
2014-02-03 20:06:00,13.8,5.0,30.03,NNE,32,6.0,6.0,76,0.00,,,0.01,jdr_py version_0.1,2014-02-04 03:06:00,
2014-02-03 20:12:00,14.1,5.7,30.00,NNE,32,6.0,8.0,77,0.00,,,0.01,jdr_py version_0.1,2014-02-04 03:12:00,
2014-02-03 20:18:00,14.3,6.3,30.00,NNE,32,6.0,6.0,78,0.00,,,0.01,jdr_py version_0.1,2014-02-04 03:18:00,
2014-02-03 20:24:00,14.3,5.9,30.00,NNE,32,5.0,7.0,77,0.00,,,0.01,jdr_py version_0.1,2014-02-04 03:24:00,
2014-02-03 20:30:00,14.0,5.6,30.00,NNE,31,6.0,6.0,77,0.00,,,0.01,jdr_py version_0.1,2014-02-04 03:30:00,
2014-02-03 20:36:00,13.1,4.7,30.00,NNE,31,5.0,7.0,77,0.00,,,0.01,jdr_py version_0.1,2014-02-04 03:36:00,
2014-02-03 20:42:00,13.1,5.1,30.02,NNE,22,6.0,7.0,78,0.00,,,0.01,jdr_py version_0.1,2014-02-04 03:42:00,
2014-02-03 20:48:00,12.8,4.9,30.02,NNE,22,6.0,7.0,78,0.00,,,0.01,jdr_py version_0.1,2014-02-04 03:48:00,
2014-02-03 20:54:00,12.4,4.5,30.02,NNE,20,5.0,7.0,78,0.00,,,0.01,jdr_py version_0.1,2014-02-04 03:54:00,
2014-02-03 21:00:00,12.6,4.7,30.02,NNE,19,6.0,7.0,78,0.00,,,0.01,jdr_py version_0.1,2014-02-04 04:00:00,
2014-02-03 21:06:00,12.3,4.4,30.02,NNE,19,6.0,6.0,78,0.00,,,0.01,jdr_py version_0.1,2014-02-04 04:06:00,
2014-02-03 21:12:00,12.1,4.2,30.02,NNE,20,6.0,6.0,78,0.00,,,0.01,jdr_py version_0.1,2014-02-04 04:12:00,
2014-02-03 21:18:00,12.3,4.0,30.02,NNE,24,7.0,8.0,77,0.00,,,0.01,jdr_py version_0.1,2014-02-04 04:18:00,
2014-02-03 21:24:00,12.3,4.0,30.02,NNE,30,7.0,7.0,77,0.00,,,0.01,jdr_py version_0.1,2014-02-04 04:24:00,
2014-02-03 21:30:00,11.9,3.6,30.02,NE,34,7.0,7.0,77,0.00,,,0.01,jdr_py version_0.1,2014-02-04 04:30:00,
2014-02-03 21:36:00,11.6,3.3,30.02,NE,36,7.0,7.0,77,0.00,,,0.01,jdr_py version_0.1,2014-02-04 04:36:00,
2014-02-03 21:42:00,11.2,3.3,30.02,ENE,68,6.0,6.0,78,0.00,,,0.01,jdr_py version_0.1,2014-02-04 04:42:00,
2014-02-03 21:48:00,11.2,3.3,30.02,ENE,63,4.0,0.0,78,0.00,,,0.01,jdr_py version_0.1,2014-02-04 04:48:00,
2014-02-03 21:54:00,10.7,2.4,30.02,NNE,33,4.0,7.0,77,0.00,,,0.01,jdr_py version_0.1,2014-02-04 04:54:00,
2014-02-03 22:00:00,10.9,3.0,30.02,NNE,22,6.0,7.0,78,0.00,,,0.01,jdr_py version_0.1,2014-02-04 05:00:00,
2014-02-03 22:06:00,11.4,3.5,30.02,NNE,29,9.0,9.0,78,0.00,,,0.01,jdr_py version_0.1,2014-02-04 05:06:00,
2014-02-03 22:12:00,11.7,3.8,29.98,NNE,24,8.0,8.0,78,0.00,,,0.01,jdr_py version_0.1,2014-02-04 05:12:00,
2014-02-03 22:18:00,12.1,3.8,29.98,North,5,9.0,9.0,77,0.00,,,0.01,jdr_py version_0.1,2014-02-04 05:18:00,
2014-02-03 22:24:00,12.1,3.4,29.98,NNE,12,9.0,9.0,76,0.00,,,0.01,jdr_py version_0.1,2014-02-04 05:24:00,
2014-02-03 22:30:00,11.4,2.7,29.98,NNE,22,8.0,8.0,76,0.00,,,0.01,jdr_py version_0.1,2014-02-04 05:30:00,
2014-02-03 22:36:00,11.2,2.9,29.98,NNE,17,8.0,8.0,77,0.00,,,0.01,jdr_py version_0.1,2014-02-04 05:36:00,
2014-02-03 22:42:00,10.5,2.2,29.98,NNE,17,7.0,7.0,77,0.00,,,0.01,jdr_py version_0.1,2014-02-04 05:42:00,
2014-02-03 22:48:00,9.7,1.5,29.98,NNE,15,5.0,5.0,77,0.00,,,0.01,jdr_py version_0.1,2014-02-04 05:48:00,
2014-02-03 22:54:00,9.5,1.7,29.98,NNE,15,6.0,7.0,78,0.00,,,0.01,jdr_py version_0.1,2014-02-04 05:54:00,
2014-02-03 23:00:00,9.2,1.4,29.99,NNE,15,6.0,6.0,78,0.00,,,0.01,jdr_py version_0.1,2014-02-04 06:00:00,
2014-02-03 23:06:00,9.2,1.8,29.99,NNE,14,5.0,5.0,79,0.00,,,0.01,jdr_py version_0.1,2014-02-04 06:06:00,
2014-02-03 23:12:00,9.2,1.8,29.99,NNE,14,5.0,5.0,79,0.00,,,0.01,jdr_py version_0.1,2014-02-04 06:12:00,
2014-02-03 23:18:00,9.2,1.8,29.99,NNE,14,5.0,5.0,79,0.00,,,0.01,jdr_py version_0.1,2014-02-04 06:18:00,
2014-02-03 23:24:00,8.8,1.4,29.99,NNE,14,5.0,5.0,79,0.00,,,0.01,jdr_py version_0.1,2014-02-04 06:24:00,
2014-02-03 23:30:00,9.0,2.0,29.98,NNE,14,5.0,6.0,80,0.00,,,0.01,jdr_py version_0.1,2014-02-04 06:30:00,
2014-02-03 23:36:00,9.0,2.0,29.98,NNE,14,5.0,6.0,80,0.00,,,0.01,jdr_py version_0.1,2014-02-04 06:36:00,
2014-02-03 23:42:00,9.3,2.3,29.98,NNE,15,6.0,6.0,80,0.00,,,0.01,jdr_py version_0.1,2014-02-04 06:42:00,
2014-02-03 23:48:00,8.8,1.4,29.98,NNE,15,5.0,5.0,79,0.00,,,0.01,jdr_py version_0.1,2014-02-04 06:48:00,
2014-02-03 23:54:00,8.1,0.7,29.98,NNE,16,4.0,5.0,79,0.00,,,0.01,jdr_py version_0.1,2014-02-04 06:54:00,